createdAt,value
2022-08-25T00:00:34.233Z,63.84
2022-08-25T00:01:34.183Z,64.47
2022-08-25T00:02:34.194Z,64.47
2022-08-25T00:03:35.929Z,64.77
2022-08-25T00:04:35.155Z,64.47
2022-08-25T00:05:34.190Z,64.67
2022-08-25T00:06:34.121Z,64.87
2022-08-25T00:07:34.116Z,64.77
2022-08-25T00:08:34.098Z,64.97
2022-08-25T00:09:34.124Z,65.26
2022-08-25T00:10:34.109Z,65.37
2022-08-25T00:11:34.070Z,65.07
2022-08-25T00:12:34.065Z,64.67
2022-08-25T00:13:34.059Z,64.90
2022-08-25T00:14:34.031Z,65.20
2022-08-25T00:15:34.049Z,65.50
2022-08-25T00:16:34.045Z,65.60
2022-08-25T00:17:34.011Z,65.80
2022-08-25T00:18:33.993Z,65.70
2022-08-25T00:19:34.000Z,65.60
2022-08-25T00:20:33.990Z,65.40
2022-08-25T00:21:33.969Z,65.30
2022-08-25T00:22:34.012Z,65.40
2022-08-25T00:23:33.969Z,65.50
2022-08-25T00:24:33.956Z,65.30
2022-08-25T00:25:33.918Z,65.20
2022-08-25T00:26:33.923Z,65.00
2022-08-25T00:27:33.896Z,64.90
2022-08-25T00:28:33.899Z,64.63
2022-08-25T00:29:33.927Z,64.43
2022-08-25T00:30:33.872Z,63.73
2022-08-25T00:31:38.879Z,64.13
2022-08-25T00:32:34.840Z,63.33
2022-08-25T00:33:33.853Z,63.03
2022-08-25T00:34:33.829Z,63.13
2022-08-25T00:35:33.834Z,63.33
2022-08-25T00:36:33.796Z,62.63
2022-08-25T00:37:33.782Z,62.53
2022-08-25T00:38:33.786Z,62.73
2022-08-25T00:39:33.793Z,63.03
2022-08-25T00:40:33.776Z,63.03
2022-08-25T00:41:33.767Z,62.93
2022-08-25T00:42:33.745Z,63.13
2022-08-25T00:43:33.772Z,63.03
2022-08-25T00:44:33.711Z,63.03
2022-08-25T00:45:33.692Z,63.06
2022-08-25T00:46:33.717Z,62.76
2022-08-25T00:47:33.685Z,62.86
2022-08-25T00:48:33.687Z,62.56
2022-08-25T00:49:33.738Z,62.66
2022-08-25T00:50:33.650Z,62.46
2022-08-25T00:51:33.626Z,62.86
2022-08-25T00:52:33.652Z,63.17
2022-08-25T00:53:33.608Z,63.06
2022-08-25T00:54:33.637Z,63.66
2022-08-25T00:55:33.582Z,64.06
2022-08-25T00:56:33.606Z,64.26
2022-08-25T00:57:34.302Z,64.69
2022-08-25T00:58:33.546Z,65.19
2022-08-25T00:59:33.536Z,65.49
2022-08-25T01:00:33.555Z,65.49
2022-08-25T01:01:33.565Z,65.79
2022-08-25T01:02:33.544Z,65.99
2022-08-25T01:03:34.056Z,66.29
2022-08-25T01:04:33.499Z,65.99
2022-08-25T01:05:33.507Z,65.49
2022-08-25T01:06:33.459Z,65.69
2022-08-25T01:07:33.480Z,65.59
2022-08-25T01:08:33.438Z,65.29
2022-08-25T01:09:33.450Z,65.29
2022-08-25T01:10:33.426Z,65.59
2022-08-25T01:11:33.430Z,64.99
2022-08-25T01:12:34.361Z,65.09
2022-08-25T01:13:33.390Z,65.29
2022-08-25T01:14:33.416Z,64.62
2022-08-25T01:15:33.465Z,64.83
2022-08-25T01:16:33.367Z,65.22
2022-08-25T01:17:33.383Z,65.22
2022-08-25T01:18:33.353Z,65.52
2022-08-25T01:19:33.316Z,65.42
2022-08-25T01:20:33.303Z,65.62
2022-08-25T01:21:33.306Z,65.52
2022-08-25T01:22:33.306Z,65.22
2022-08-25T01:23:34.279Z,65.33
2022-08-25T01:24:33.266Z,64.72
2022-08-25T01:25:33.256Z,65.12
2022-08-25T01:26:33.241Z,65.22
2022-08-25T01:27:33.242Z,65.22
2022-08-25T01:28:33.241Z,65.02
2022-08-25T01:29:33.242Z,65.02
2022-08-25T01:30:33.216Z,65.05
2022-08-25T01:31:33.215Z,65.05
2022-08-25T01:32:33.173Z,65.12
2022-08-25T01:33:33.182Z,65.25
2022-08-25T01:34:33.154Z,64.86
2022-08-25T01:35:33.171Z,65.05
2022-08-25T01:36:33.179Z,64.95
2022-08-25T01:37:33.117Z,65.16
2022-08-25T01:38:33.102Z,66.05
2022-08-25T01:39:33.091Z,66.36
2022-08-25T01:40:33.081Z,66.25
2022-08-25T01:41:33.080Z,66.28
2022-08-25T01:42:33.089Z,66.99
2022-08-25T01:43:33.047Z,66.78
2022-08-25T01:44:33.032Z,67.09
2022-08-25T01:45:33.023Z,67.39
2022-08-25T01:46:33.046Z,67.49
2022-08-25T01:47:33.005Z,67.49
2022-08-25T01:48:33.004Z,67.69
2022-08-25T01:49:32.993Z,67.79
2022-08-25T01:50:32.999Z,67.09
2022-08-25T01:51:32.964Z,67.19
2022-08-25T01:52:32.970Z,67.52
2022-08-25T01:53:33.435Z,67.72
2022-08-25T01:54:32.928Z,67.22
2022-08-25T01:55:32.907Z,66.92
2022-08-25T01:56:32.923Z,67.32
2022-08-25T01:57:32.899Z,67.42
2022-08-25T01:58:32.909Z,67.82
2022-08-25T01:59:32.880Z,67.92
2022-08-25T02:00:32.859Z,68.02
2022-08-25T02:01:32.877Z,68.12
2022-08-25T02:02:32.967Z,68.02
2022-08-25T02:03:32.884Z,68.02
2022-08-25T02:04:33.043Z,67.82
2022-08-25T02:05:32.811Z,67.32
2022-08-25T02:06:33.122Z,67.42
2022-08-25T02:07:32.800Z,67.02
2022-08-25T02:08:32.774Z,66.82
2022-08-25T02:09:32.795Z,66.82
2022-08-25T02:10:32.747Z,66.82
2022-08-25T02:11:32.740Z,67.15
2022-08-25T02:12:32.742Z,67.25
2022-08-25T02:13:32.766Z,67.25
2022-08-25T02:14:32.742Z,67.65
2022-08-25T02:15:32.718Z,67.55
2022-08-25T02:16:32.708Z,67.85
2022-08-25T02:17:32.684Z,68.15
2022-08-25T02:18:32.673Z,68.46
2022-08-25T02:19:32.729Z,68.65
2022-08-25T02:20:32.652Z,68.96
2022-08-25T02:21:32.660Z,68.96
2022-08-25T02:22:32.639Z,69.16
2022-08-25T02:23:32.638Z,69.16
2022-08-25T02:24:32.619Z,69.35
2022-08-25T02:25:32.616Z,69.35
2022-08-25T02:26:32.585Z,69.46
2022-08-25T02:27:32.567Z,69.46
2022-08-25T02:28:32.571Z,69.56
2022-08-25T02:29:32.549Z,69.66
2022-08-25T02:30:32.618Z,69.99
2022-08-25T02:31:32.552Z,70.29
2022-08-25T02:32:32.508Z,70.50
2022-08-25T02:33:32.503Z,70.69
2022-08-25T02:34:32.505Z,70.69
2022-08-25T02:35:32.521Z,71.00
2022-08-25T02:36:32.507Z,72.09
2022-08-25T02:37:32.459Z,72.50
2022-08-25T02:38:32.440Z,72.70
2022-08-25T02:39:32.492Z,73.54
2022-08-25T02:40:32.515Z,74.34
2022-08-25T02:41:32.416Z,74.80
2022-08-25T02:42:32.415Z,75.31
2022-08-25T02:43:32.393Z,75.74
2022-08-25T02:44:32.383Z,76.45
2022-08-25T02:45:32.516Z,76.85
2022-08-25T02:46:32.378Z,77.25
2022-08-25T02:47:32.389Z,77.45
2022-08-25T02:48:32.337Z,77.55
2022-08-25T02:49:32.326Z,77.65
2022-08-25T02:50:32.310Z,77.99
2022-08-25T02:51:32.315Z,78.29
2022-08-25T02:52:32.305Z,78.89
2022-08-25T02:53:32.286Z,78.89
2022-08-25T02:54:32.350Z,79.09
2022-08-25T02:55:34.670Z,79.29
2022-08-25T02:56:32.276Z,79.49
2022-08-25T02:57:32.251Z,79.49
2022-08-25T02:58:32.223Z,79.49
2022-08-25T02:59:32.216Z,79.69
2022-08-25T03:00:32.209Z,79.90
2022-08-25T03:01:32.294Z,80.19
2022-08-25T03:02:32.200Z,80.60
2022-08-25T03:03:34.312Z,80.83
2022-08-25T03:04:33.257Z,81.14
2022-08-25T03:05:32.169Z,81.34
2022-08-25T03:06:32.132Z,81.44
2022-08-25T03:07:32.121Z,81.64
2022-08-25T03:08:32.112Z,81.84
2022-08-25T03:09:32.131Z,81.84
2022-08-25T03:10:32.099Z,81.94
2022-08-25T03:11:32.099Z,81.94
2022-08-25T03:12:32.084Z,81.84
2022-08-25T03:13:32.109Z,81.74
2022-08-25T03:14:32.049Z,81.64
2022-08-25T03:15:32.033Z,81.64
2022-08-25T03:16:32.063Z,81.54
2022-08-25T03:17:32.965Z,81.44
2022-08-25T03:18:32.004Z,81.34
2022-08-25T03:19:32.034Z,81.34
2022-08-25T03:20:32.004Z,81.34
2022-08-25T03:21:32.015Z,81.44
2022-08-25T03:22:31.975Z,81.54
2022-08-25T03:23:31.962Z,81.74
2022-08-25T03:24:31.945Z,81.84
2022-08-25T03:25:31.962Z,82.04
2022-08-25T03:26:31.946Z,82.18
2022-08-25T03:27:31.910Z,82.38
2022-08-25T03:28:31.911Z,82.48
2022-08-25T03:29:31.893Z,82.58
2022-08-25T03:30:31.879Z,82.68
2022-08-25T03:31:31.889Z,82.78
2022-08-25T03:32:31.889Z,82.89
2022-08-25T03:33:31.869Z,83.09
2022-08-25T03:34:31.857Z,83.09
2022-08-25T03:35:31.833Z,83.09
2022-08-25T03:36:31.816Z,83.09
2022-08-25T03:37:31.818Z,83.29
2022-08-25T03:38:31.811Z,83.09
2022-08-25T03:39:31.803Z,83.29
2022-08-25T03:40:31.822Z,83.33
2022-08-25T03:41:31.782Z,83.03
2022-08-25T03:42:31.744Z,83.03
2022-08-25T03:43:31.766Z,83.23
2022-08-25T03:44:31.746Z,83.33
2022-08-25T03:45:31.769Z,83.23
2022-08-25T03:46:31.865Z,83.03
2022-08-25T03:47:31.698Z,83.12
2022-08-25T03:48:31.725Z,83.03
2022-08-25T03:49:31.667Z,82.72
2022-08-25T03:50:31.663Z,82.82
2022-08-25T03:51:31.673Z,82.92
2022-08-25T03:52:31.650Z,83.12
2022-08-25T03:53:31.644Z,83.03
2022-08-25T03:54:31.677Z,82.92
2022-08-25T03:55:31.596Z,83.03
2022-08-25T03:56:31.607Z,83.12
2022-08-25T03:57:31.591Z,83.23
2022-08-25T03:58:31.573Z,83.43
2022-08-25T03:59:31.622Z,83.53
2022-08-25T04:00:31.559Z,83.53
2022-08-25T04:01:31.585Z,83.53
2022-08-25T04:02:31.588Z,83.53
2022-08-25T04:03:31.509Z,83.63
2022-08-25T04:04:31.515Z,83.53
2022-08-25T04:05:31.534Z,83.53
2022-08-25T04:06:31.516Z,83.53
2022-08-25T04:07:31.472Z,83.63
2022-08-25T04:08:31.512Z,83.73
2022-08-25T04:09:35.248Z,83.93
2022-08-25T04:10:32.443Z,84.17
2022-08-25T04:11:31.458Z,84.27
2022-08-25T04:12:31.456Z,84.37
2022-08-25T04:13:31.423Z,84.47
2022-08-25T04:14:31.438Z,84.67
2022-08-25T04:15:31.427Z,84.77
2022-08-25T04:16:31.514Z,84.88
2022-08-25T04:17:31.355Z,84.97
2022-08-25T04:18:31.365Z,85.08
2022-08-25T04:19:31.348Z,85.08
2022-08-25T04:20:31.356Z,84.97
2022-08-25T04:21:31.335Z,84.97
2022-08-25T04:22:31.338Z,85.08
2022-08-25T04:23:31.329Z,85.08
2022-08-25T04:24:31.289Z,85.08
2022-08-25T04:25:31.308Z,85.08
2022-08-25T04:26:31.305Z,85.11
2022-08-25T04:27:31.278Z,85.22
2022-08-25T04:28:31.247Z,85.42
2022-08-25T04:29:31.246Z,85.52
2022-08-25T04:30:31.238Z,85.52
2022-08-25T04:31:31.261Z,85.62
2022-08-25T04:32:31.199Z,85.62
2022-08-25T04:33:31.190Z,85.72
2022-08-25T04:34:31.603Z,85.82
2022-08-25T04:35:31.179Z,86.02
2022-08-25T04:36:31.161Z,86.12
2022-08-25T04:37:31.166Z,86.22
2022-08-25T04:38:31.154Z,86.32
2022-08-25T04:39:31.122Z,86.43
2022-08-25T04:40:31.177Z,86.32
2022-08-25T04:41:31.131Z,86.32
2022-08-25T04:42:31.122Z,86.43
2022-08-25T04:43:31.141Z,86.57
2022-08-25T04:44:31.073Z,86.66
2022-08-25T04:45:31.097Z,86.66
2022-08-25T04:46:31.056Z,86.66
2022-08-25T04:47:31.050Z,86.66
2022-08-25T04:48:31.048Z,86.77
2022-08-25T04:49:31.047Z,86.87
2022-08-25T04:50:31.032Z,86.87
2022-08-25T04:51:31.015Z,86.97
2022-08-25T04:52:30.978Z,87.17
2022-08-25T04:53:30.998Z,87.17
2022-08-25T04:54:31.043Z,87.07
2022-08-25T04:55:31.954Z,86.97
2022-08-25T04:56:30.939Z,86.97
2022-08-25T04:57:30.937Z,86.97
2022-08-25T04:58:30.918Z,86.83
2022-08-25T04:59:30.959Z,86.72
2022-08-25T05:00:30.909Z,86.72
2022-08-25T05:01:30.913Z,86.72
2022-08-25T05:02:30.873Z,86.63
2022-08-25T05:03:30.883Z,86.43
2022-08-25T05:04:30.984Z,86.12
2022-08-25T05:05:30.870Z,85.92
2022-08-25T05:06:30.829Z,85.92
2022-08-25T05:07:30.845Z,85.92
2022-08-25T05:08:30.819Z,86.02
2022-08-25T05:09:32.495Z,86.22
2022-08-25T05:10:30.802Z,86.12
2022-08-25T05:11:30.767Z,86.22
2022-08-25T05:12:30.771Z,86.12
2022-08-25T05:13:30.752Z,86.02
2022-08-25T05:14:30.794Z,86.02
2022-08-25T05:15:30.799Z,85.82
2022-08-25T05:16:30.793Z,85.82
2022-08-25T05:17:30.705Z,85.82
2022-08-25T05:18:30.775Z,85.58
2022-08-25T05:19:30.688Z,85.28
2022-08-25T05:20:30.695Z,85.08
2022-08-25T05:21:30.678Z,84.88
2022-08-25T05:22:30.678Z,84.47
2022-08-25T05:23:30.656Z,84.23
2022-08-25T05:24:30.646Z,83.93
2022-08-25T05:25:30.637Z,83.83
2022-08-25T05:26:30.627Z,83.83
2022-08-25T05:27:30.634Z,83.73
2022-08-25T05:28:30.590Z,83.87
2022-08-25T05:29:30.614Z,83.87
2022-08-25T05:30:30.560Z,83.93
2022-08-25T05:31:30.582Z,83.93
2022-08-25T05:32:30.552Z,83.83
2022-08-25T05:33:30.650Z,83.73
2022-08-25T05:34:30.551Z,83.63
2022-08-25T05:35:30.510Z,83.39
2022-08-25T05:36:30.721Z,82.98
2022-08-25T05:37:30.486Z,82.48
2022-08-25T05:38:30.509Z,82.08
2022-08-25T05:39:30.481Z,81.84
2022-08-25T05:40:30.546Z,81.44
2022-08-25T05:41:30.492Z,81.14
2022-08-25T05:42:30.443Z,80.80
2022-08-25T05:43:30.418Z,80.60
2022-08-25T05:44:30.452Z,80.40
2022-08-25T05:45:30.462Z,80.19
2022-08-25T05:46:31.572Z,79.96
2022-08-25T05:47:30.434Z,79.86
2022-08-25T05:48:30.490Z,79.75
2022-08-25T05:49:30.402Z,79.75
2022-08-25T05:50:30.404Z,79.46
2022-08-25T05:51:30.336Z,79.55
2022-08-25T05:52:30.352Z,79.32
2022-08-25T05:53:31.097Z,79.32
2022-08-25T05:54:30.299Z,79.32
2022-08-25T05:55:30.319Z,79.42
2022-08-25T05:56:30.277Z,79.22
2022-08-25T05:57:30.332Z,78.98
2022-08-25T05:58:30.278Z,79.08
2022-08-25T05:59:30.283Z,79.18
2022-08-25T06:00:30.229Z,79.18
2022-08-25T06:01:30.265Z,79.28
2022-08-25T06:02:30.214Z,79.24
2022-08-25T06:03:30.237Z,79.24
2022-08-25T06:04:30.212Z,79.04
2022-08-25T06:05:30.192Z,79.04
2022-08-25T06:06:30.187Z,78.94
2022-08-25T06:07:30.173Z,78.74
2022-08-25T06:08:30.157Z,78.60
2022-08-25T06:09:30.160Z,78.70
2022-08-25T06:10:30.152Z,78.50
2022-08-25T06:11:30.115Z,78.70
2022-08-25T06:12:30.157Z,78.60
2022-08-25T06:13:30.101Z,78.20
2022-08-25T06:14:30.085Z,78.06
2022-08-25T06:15:30.067Z,77.76
2022-08-25T06:16:30.087Z,77.56
2022-08-25T06:17:30.055Z,77.56
2022-08-25T06:18:30.066Z,77.47
2022-08-25T06:19:30.035Z,77.06
2022-08-25T06:20:30.007Z,76.87
2022-08-25T06:21:30.023Z,76.53
2022-08-25T06:22:30.030Z,76.33
2022-08-25T06:23:29.986Z,76.33
2022-08-25T06:24:29.974Z,76.13
2022-08-25T06:25:29.957Z,75.52
2022-08-25T06:26:29.943Z,75.52
2022-08-25T06:27:29.932Z,74.93
2022-08-25T06:28:29.959Z,74.22
2022-08-25T06:29:29.919Z,74.03
2022-08-25T06:30:30.041Z,73.49
2022-08-25T06:31:29.928Z,73.19
2022-08-25T06:32:29.890Z,72.39
2022-08-25T06:33:29.892Z,72.49
2022-08-25T06:34:29.885Z,72.89
2022-08-25T06:35:29.853Z,72.99
2022-08-25T06:36:29.843Z,72.66
2022-08-25T06:37:29.850Z,72.36
2022-08-25T06:38:29.815Z,71.56
2022-08-25T06:39:29.798Z,71.66
2022-08-25T06:40:29.854Z,72.06
2022-08-25T06:41:36.959Z,71.56
2022-08-25T06:42:30.806Z,71.76
2022-08-25T06:43:29.766Z,71.66
2022-08-25T06:44:29.746Z,71.62
2022-08-25T06:45:29.754Z,71.52
2022-08-25T06:46:35.733Z,71.03
2022-08-25T06:47:30.705Z,70.83
2022-08-25T06:48:29.733Z,71.12
2022-08-25T06:49:33.049Z,71.22
2022-08-25T06:50:30.716Z,70.92
2022-08-25T06:51:29.668Z,70.69
2022-08-25T06:52:29.700Z,70.49
2022-08-25T06:53:29.681Z,70.99
2022-08-25T06:54:29.644Z,70.39
2022-08-25T06:55:29.636Z,69.69
2022-08-25T06:56:29.620Z,69.09
2022-08-25T06:57:29.629Z,69.46
2022-08-25T06:58:29.640Z,69.06
2022-08-25T06:59:32.189Z,68.76
2022-08-25T07:00:30.529Z,68.46
2022-08-25T07:01:29.619Z,68.76
2022-08-25T07:02:29.616Z,67.76
2022-08-25T07:03:30.561Z,67.73
2022-08-25T07:04:29.534Z,67.83
2022-08-25T07:05:42.668Z,67.73
2022-08-25T07:06:30.543Z,67.33
2022-08-25T07:07:44.089Z,67.33
2022-08-25T07:08:30.492Z,67.73
2022-08-25T07:09:29.473Z,67.40
2022-08-25T07:10:29.463Z,67.60
2022-08-25T07:11:29.460Z,67.70
2022-08-25T07:12:29.477Z,67.40
2022-08-25T07:13:29.449Z,66.70
2022-08-25T07:14:29.447Z,66.20
2022-08-25T07:15:29.414Z,66.17
2022-08-25T07:16:29.622Z,66.17
2022-08-25T07:17:29.453Z,65.77
2022-08-25T07:18:29.379Z,65.47
2022-08-25T07:19:29.369Z,65.97
2022-08-25T07:20:29.351Z,65.64
2022-08-25T07:21:33.190Z,65.54
2022-08-25T07:22:29.339Z,65.44
2022-08-25T07:23:29.349Z,65.34
2022-08-25T07:24:29.317Z,65.14
2022-08-25T07:25:29.379Z,64.81
2022-08-25T07:26:38.164Z,64.42
2022-08-25T07:27:30.292Z,64.72
2022-08-25T07:28:29.292Z,64.22
2022-08-25T07:29:32.565Z,64.31
2022-08-25T07:30:29.256Z,64.42
2022-08-25T07:31:29.624Z,64.22
2022-08-25T07:32:29.231Z,64.09
2022-08-25T07:33:29.225Z,64.28
2022-08-25T07:34:29.224Z,64.09
2022-08-25T07:35:37.474Z,63.89
2022-08-25T07:36:30.211Z,63.39
2022-08-25T07:37:47.895Z,63.66
2022-08-25T07:38:30.186Z,63.26
2022-08-25T07:39:29.234Z,63.06
2022-08-25T07:40:29.180Z,63.26
2022-08-25T07:41:29.179Z,62.96
2022-08-25T07:42:29.128Z,62.86
2022-08-25T07:43:29.153Z,62.83
2022-08-25T07:44:29.109Z,62.53
2022-08-25T07:45:29.100Z,62.23
2022-08-25T07:46:29.125Z,62.43
2022-08-25T07:47:29.098Z,62.93
2022-08-25T07:48:29.072Z,62.53
2022-08-25T07:49:35.960Z,62.40
2022-08-25T07:50:30.073Z,62.40
2022-08-25T07:51:29.106Z,62.50
2022-08-25T07:52:29.022Z,62.30
2022-08-25T07:53:29.027Z,62.30
2022-08-25T07:54:31.309Z,62.10
2022-08-25T07:55:29.991Z,61.91
2022-08-25T07:56:29.001Z,61.91
2022-08-25T07:57:28.972Z,61.88
2022-08-25T07:58:28.962Z,61.78
2022-08-25T07:59:28.935Z,61.88
2022-08-25T08:00:28.942Z,61.38
2022-08-25T08:01:28.942Z,61.28
2022-08-25T08:02:28.942Z,60.78
2022-08-25T08:03:45.187Z,60.58
2022-08-25T08:04:29.905Z,60.56
2022-08-25T08:05:28.881Z,60.46
2022-08-25T08:06:28.855Z,61.65
2022-08-25T08:07:43.379Z,61.75
2022-08-25T08:08:29.853Z,61.45
2022-08-25T08:09:28.857Z,61.75
2022-08-25T08:10:47.935Z,60.36
2022-08-25T08:11:29.798Z,60.56
2022-08-25T08:12:28.917Z,60.23
2022-08-25T08:13:28.792Z,60.23
2022-08-25T08:14:28.787Z,60.03
2022-08-25T08:15:29.940Z,60.93
2022-08-25T08:16:28.811Z,60.13
2022-08-25T08:17:28.744Z,60.33
2022-08-25T08:18:28.730Z,59.21
2022-08-25T08:19:28.819Z,59.91
2022-08-25T08:20:28.705Z,58.91
2022-08-25T08:21:28.691Z,59.31
2022-08-25T08:22:28.703Z,59.80
2022-08-25T08:23:28.683Z,59.41
2022-08-25T08:24:44.199Z,59.80
2022-08-25T08:25:29.682Z,57.42
2022-08-25T08:26:48.081Z,58.12
2022-08-25T08:27:29.628Z,56.90
2022-08-25T08:28:28.640Z,56.60
2022-08-25T08:29:28.621Z,56.70
2022-08-25T08:30:28.613Z,56.70
2022-08-25T08:31:28.635Z,56.01
2022-08-25T08:32:36.660Z,55.71
2022-08-25T08:33:29.567Z,56.38
2022-08-25T08:34:28.604Z,55.98
2022-08-25T08:35:28.548Z,56.77
2022-08-25T08:36:28.537Z,56.87
2022-08-25T08:37:28.546Z,57.37
2022-08-25T08:38:28.509Z,57.74
2022-08-25T08:39:28.507Z,58.13
2022-08-25T08:40:28.576Z,57.84
2022-08-25T08:41:28.531Z,57.04
2022-08-25T08:42:28.480Z,56.65
2022-08-25T08:43:33.224Z,57.44
2022-08-25T08:44:29.437Z,56.95
2022-08-25T08:45:28.469Z,56.25
2022-08-25T08:46:28.479Z,56.42
2022-08-25T08:47:28.411Z,55.73
2022-08-25T08:48:28.401Z,56.13
2022-08-25T08:49:28.388Z,56.23
2022-08-25T08:50:32.725Z,55.93
2022-08-25T08:51:33.104Z,55.93
2022-08-25T08:52:29.393Z,54.81
2022-08-25T08:53:28.399Z,55.11
2022-08-25T08:54:29.327Z,55.01
2022-08-25T08:55:28.326Z,53.92
2022-08-25T08:56:30.650Z,54.91
2022-08-25T08:57:28.313Z,55.70
2022-08-25T08:58:28.326Z,56.07
2022-08-25T08:59:28.872Z,54.59
2022-08-25T09:00:28.269Z,54.10
2022-08-25T09:01:28.278Z,55.28
2022-08-25T09:02:39.113Z,54.59
2022-08-25T09:03:29.264Z,54.39
2022-08-25T09:04:28.271Z,53.99
2022-08-25T09:05:28.250Z,53.30
2022-08-25T09:06:28.220Z,53.60
2022-08-25T09:07:28.276Z,53.80
2022-08-25T09:08:28.189Z,53.11
2022-08-25T09:09:28.179Z,53.99
2022-08-25T09:10:28.192Z,53.77
2022-08-25T09:11:28.158Z,54.76
2022-08-25T09:12:28.151Z,54.17
2022-08-25T09:13:28.130Z,54.17
2022-08-25T09:14:30.330Z,53.77
2022-08-25T09:15:28.141Z,51.89
2022-08-25T09:16:31.795Z,53.47
2022-08-25T09:17:29.104Z,52.29
2022-08-25T09:18:28.113Z,51.89
2022-08-25T09:19:28.062Z,51.70
2022-08-25T09:20:28.057Z,51.89
2022-08-25T09:21:28.045Z,52.95
2022-08-25T09:22:35.164Z,52.46
2022-08-25T09:23:29.055Z,51.67
2022-08-25T09:24:28.030Z,51.18
2022-08-25T09:25:48.621Z,51.37
2022-08-25T09:26:28.999Z,51.67
2022-08-25T09:27:27.986Z,51.05
2022-08-25T09:28:27.956Z,51.75
2022-08-25T09:29:27.980Z,52.04
2022-08-25T09:30:27.957Z,53.03
2022-08-25T09:31:29.916Z,52.24
2022-08-25T09:32:31.434Z,52.24
2022-08-25T09:33:27.923Z,52.24
2022-08-25T09:34:27.903Z,52.14
2022-08-25T09:35:27.901Z,53.03
2022-08-25T09:36:27.874Z,51.92
2022-08-25T09:37:27.873Z,52.44
2022-08-25T09:38:27.886Z,53.03
2022-08-25T09:39:27.886Z,53.03
2022-08-25T09:40:27.909Z,52.44
2022-08-25T09:41:27.831Z,51.35
2022-08-25T09:42:27.825Z,51.82
2022-08-25T09:43:27.850Z,51.82
2022-08-25T09:44:27.804Z,51.52
2022-08-25T09:45:27.803Z,52.21
2022-08-25T09:46:27.830Z,50.93
2022-08-25T09:47:27.806Z,50.73
2022-08-25T09:48:28.612Z,50.73
2022-08-25T09:49:27.783Z,51.42
2022-08-25T09:50:27.726Z,51.82
2022-08-25T09:51:27.745Z,51.13
2022-08-25T09:52:27.699Z,51.69
2022-08-25T09:53:27.721Z,52.39
2022-08-25T09:54:34.152Z,51.89
2022-08-25T09:55:28.677Z,51.50
2022-08-25T09:56:27.674Z,52.09
2022-08-25T09:57:27.661Z,51.50
2022-08-25T09:58:27.638Z,51.59
2022-08-25T09:59:34.734Z,50.21
2022-08-25T10:00:28.620Z,50.12
2022-08-25T10:01:27.742Z,50.02
2022-08-25T10:02:28.600Z,51.37
2022-08-25T10:03:27.586Z,50.98
2022-08-25T10:04:27.593Z,51.37
2022-08-25T10:05:27.676Z,51.37
2022-08-25T10:06:27.562Z,51.67
2022-08-25T10:07:27.559Z,51.47
2022-08-25T10:08:27.558Z,49.90
2022-08-25T10:09:27.551Z,49.10
2022-08-25T10:10:27.554Z,49.90
2022-08-25T10:11:28.556Z,49.99
2022-08-25T10:12:27.944Z,49.38
2022-08-25T10:13:27.483Z,48.49
2022-08-25T10:14:27.476Z,48.79
2022-08-25T10:15:29.632Z,49.18
2022-08-25T10:16:32.080Z,49.77
2022-08-25T10:17:29.901Z,49.75
2022-08-25T10:18:27.437Z,50.63
2022-08-25T10:19:27.419Z,50.73
2022-08-25T10:20:27.418Z,49.85
2022-08-25T10:21:28.409Z,50.14
2022-08-25T10:22:27.422Z,50.04
2022-08-25T10:23:27.435Z,49.55
2022-08-25T10:24:27.374Z,48.86
2022-08-25T10:25:27.396Z,49.85
2022-08-25T10:26:27.362Z,48.57
2022-08-25T10:27:28.703Z,48.96
2022-08-25T10:28:27.331Z,48.27
2022-08-25T10:29:27.345Z,47.97
2022-08-25T10:30:27.306Z,48.27
2022-08-25T10:31:27.364Z,49.55
2022-08-25T10:32:27.277Z,49.16
2022-08-25T10:33:27.335Z,49.45
2022-08-25T10:34:27.274Z,48.96
2022-08-25T10:35:27.282Z,48.37
2022-08-25T10:36:27.266Z,49.13
2022-08-25T10:37:27.227Z,49.33
2022-08-25T10:38:29.446Z,48.35
2022-08-25T10:39:34.564Z,46.77
2022-08-25T10:40:28.349Z,46.28
2022-08-25T10:41:27.227Z,45.37
2022-08-25T10:42:27.198Z,45.67
2022-08-25T10:43:27.177Z,45.67
2022-08-25T10:44:27.158Z,46.75
2022-08-25T10:45:27.156Z,47.61
2022-08-25T10:46:27.206Z,47.12
2022-08-25T10:47:27.179Z,46.72
2022-08-25T10:48:27.121Z,46.62
2022-08-25T10:49:27.119Z,47.71
2022-08-25T10:50:27.116Z,48.10
2022-08-25T10:51:27.092Z,47.31
2022-08-25T10:52:27.072Z,47.41
2022-08-25T10:53:27.059Z,48.00
2022-08-25T10:54:27.090Z,48.30
2022-08-25T10:55:27.033Z,48.89
2022-08-25T10:56:27.045Z,48.30
2022-08-25T10:57:27.034Z,47.51
2022-08-25T10:58:30.590Z,46.62
2022-08-25T10:59:27.005Z,48.10
2022-08-25T11:00:31.673Z,47.02
2022-08-25T11:01:28.994Z,47.22
2022-08-25T11:02:26.973Z,45.81
2022-08-25T11:03:26.985Z,45.92
2022-08-25T11:04:27.309Z,45.13
2022-08-25T11:05:27.039Z,44.52
2022-08-25T11:06:26.922Z,45.20
2022-08-25T11:07:26.927Z,43.93
2022-08-25T11:08:26.918Z,44.71
2022-08-25T11:09:26.900Z,45.40
2022-08-25T11:10:26.929Z,45.79
2022-08-25T11:11:26.902Z,45.70
2022-08-25T11:12:26.857Z,45.77
2022-08-25T11:13:26.852Z,46.68
2022-08-25T11:14:27.948Z,45.60
2022-08-25T11:15:26.838Z,45.40
2022-08-25T11:16:26.842Z,44.79
2022-08-25T11:17:26.841Z,44.98
2022-08-25T11:18:26.795Z,46.17
2022-08-25T11:19:26.784Z,46.26
2022-08-25T11:20:27.463Z,46.17
2022-08-25T11:21:26.769Z,46.17
2022-08-25T11:22:26.812Z,45.70
2022-08-25T11:23:26.743Z,45.89
2022-08-25T11:24:26.734Z,45.70
2022-08-25T11:25:26.728Z,46.19
2022-08-25T11:26:31.995Z,46.97
2022-08-25T11:27:27.821Z,47.56
2022-08-25T11:28:26.686Z,46.68
2022-08-25T11:29:26.675Z,47.17
2022-08-25T11:30:26.731Z,45.70
2022-08-25T11:31:28.615Z,45.50
2022-08-25T11:32:26.662Z,45.99
2022-08-25T11:33:26.671Z,44.81
2022-08-25T11:34:26.651Z,44.12
2022-08-25T11:35:26.626Z,44.32
2022-08-25T11:36:29.620Z,44.91
2022-08-25T11:37:26.594Z,44.62
2022-08-25T11:38:26.632Z,45.20
2022-08-25T11:39:28.946Z,44.81
2022-08-25T11:40:27.609Z,44.59
2022-08-25T11:41:26.565Z,44.40
2022-08-25T11:42:26.560Z,43.90
2022-08-25T11:43:26.521Z,44.69
2022-08-25T11:44:26.564Z,44.89
2022-08-25T11:45:26.519Z,44.27
2022-08-25T11:46:27.840Z,43.29
2022-08-25T11:47:26.509Z,43.69
2022-08-25T11:48:26.481Z,44.37
2022-08-25T11:49:26.489Z,44.47
2022-08-25T11:50:30.349Z,44.18
2022-08-25T11:51:26.441Z,43.10
2022-08-25T11:52:30.536Z,43.69
2022-08-25T11:53:28.180Z,43.10
2022-08-25T11:54:26.561Z,44.35
2022-08-25T11:55:26.405Z,44.65
2022-08-25T11:56:26.440Z,45.04
2022-08-25T11:57:26.374Z,45.34
2022-08-25T11:58:26.380Z,45.45
2022-08-25T11:59:26.360Z,44.96
2022-08-25T12:00:26.372Z,45.75
2022-08-25T12:01:26.354Z,45.85
2022-08-25T12:02:26.322Z,45.28
2022-08-25T12:03:26.304Z,45.67
2022-08-25T12:04:26.412Z,45.28
2022-08-25T12:05:26.397Z,43.61
2022-08-25T12:06:26.293Z,43.71
2022-08-25T12:07:26.274Z,43.80
2022-08-25T12:08:26.304Z,43.88
2022-08-25T12:09:26.267Z,44.37
2022-08-25T12:10:26.236Z,44.87
2022-08-25T12:11:26.247Z,45.06
2022-08-25T12:12:26.236Z,44.57
2022-08-25T12:13:26.225Z,45.36
2022-08-25T12:14:28.215Z,45.87
2022-08-25T12:15:26.197Z,43.71
2022-08-25T12:16:26.202Z,43.80
2022-08-25T12:17:26.179Z,44.59
2022-08-25T12:18:27.103Z,43.51
2022-08-25T12:19:26.162Z,42.61
2022-08-25T12:20:26.166Z,42.61
2022-08-25T12:21:26.131Z,42.68
2022-08-25T12:22:26.148Z,42.49
2022-08-25T12:23:26.114Z,43.27
2022-08-25T12:24:26.083Z,43.94
2022-08-25T12:25:26.763Z,43.94
2022-08-25T12:26:26.104Z,43.05
2022-08-25T12:27:26.757Z,42.05
2022-08-25T12:28:26.042Z,41.66
2022-08-25T12:29:26.081Z,41.86
2022-08-25T12:30:26.309Z,42.62
2022-08-25T12:31:26.022Z,42.03
2022-08-25T12:32:27.466Z,41.33
2022-08-25T12:33:26.287Z,41.50
2022-08-25T12:34:27.047Z,42.38
2022-08-25T12:35:25.977Z,40.90
2022-08-25T12:36:26.005Z,40.80
2022-08-25T12:37:25.969Z,40.39
2022-08-25T12:38:25.969Z,39.69
2022-08-25T12:39:25.954Z,39.39
2022-08-25T12:40:26.021Z,39.76
2022-08-25T12:41:25.945Z,39.45
2022-08-25T12:42:26.362Z,39.62
2022-08-25T12:43:25.891Z,39.41
2022-08-25T12:44:25.902Z,39.02
2022-08-25T12:45:25.914Z,38.61
2022-08-25T12:46:25.938Z,37.43
2022-08-25T12:47:25.848Z,37.41
2022-08-25T12:48:25.859Z,37.29
2022-08-25T12:49:25.846Z,37.46
2022-08-25T12:50:25.819Z,37.93
2022-08-25T12:51:25.844Z,37.45
2022-08-25T12:52:27.993Z,36.94